Time,TemperatureF,DewpointF,PressureIn,WindDirection,WindDirectionDegrees,WindSpeedMPH,WindSpeedGustMPH,Humidity,HourlyPrecipIn,Conditions,Clouds,dailyrainin,SoftwareType,DateUTC
2013-04-19 00:00:00,50.0,50.0,30.38,WSW,250,9.0,11.0,100,-99.99,,,-99.99,,2013-04-19 07:00:00,
2013-04-19 00:21:00,50.0,50.0,30.38,WSW,250,9.0,11.0,100,-99.99,,,-99.99,,2013-04-19 07:21:00,
2013-04-19 00:31:00,50.0,50.0,30.38,WSW,250,9.0,11.0,100,-99.99,,,-99.99,,2013-04-19 07:31:00,
2013-04-19 00:41:00,50.0,50.0,30.38,WSW,250,9.0,11.0,100,-99.99,,,-99.99,,2013-04-19 07:41:00,
2013-04-19 00:52:00,50.0,50.0,30.38,WSW,250,9.0,11.0,100,-99.99,,,-99.99,,2013-04-19 07:52:00,
2013-04-19 01:00:00,50.0,50.0,30.37,SW,230,9.0,11.0,100,-99.99,,,-99.99,,2013-04-19 08:00:00,
2013-04-19 01:21:00,50.0,50.0,30.37,SW,230,9.0,11.0,100,-99.99,,,-99.99,,2013-04-19 08:21:00,
2013-04-19 01:32:00,50.0,50.0,30.37,SW,230,9.0,11.0,100,-99.99,,,-99.99,,2013-04-19 08:32:00,
2013-04-19 01:41:00,50.0,50.0,30.37,SW,230,9.0,11.0,100,-99.99,,,-99.99,,2013-04-19 08:41:00,
2013-04-19 01:51:00,50.0,50.0,30.37,SW,230,9.0,11.0,100,-99.99,,,-99.99,,2013-04-19 08:51:00,
2013-04-19 02:00:00,50.0,50.0,30.35,SSW,210,11.0,13.0,100,-99.99,,,-99.99,,2013-04-19 09:00:00,
2013-04-19 02:21:00,50.0,50.0,30.35,SSW,210,11.0,13.0,100,-99.99,,,-99.99,,2013-04-19 09:21:00,
2013-04-19 02:32:00,50.0,50.0,30.35,SSW,210,11.0,13.0,100,-99.99,,,-99.99,,2013-04-19 09:32:00,
2013-04-19 02:42:00,50.0,50.0,30.35,SSW,210,11.0,13.0,100,-99.99,,,-99.99,,2013-04-19 09:42:00,
2013-04-19 02:52:00,50.0,50.0,30.35,SSW,210,11.0,13.0,100,-99.99,,,-99.99,,2013-04-19 09:52:00,
2013-04-19 03:00:00,50.0,50.0,30.33,SW,220,16.0,17.0,100,-99.99,,,-99.99,,2013-04-19 10:00:00,
2013-04-19 03:22:00,50.0,50.0,30.33,SW,220,16.0,17.0,100,-99.99,,,-99.99,,2013-04-19 10:22:00,
2013-04-19 03:33:00,50.0,50.0,30.33,SW,220,16.0,17.0,100,-99.99,,,-99.99,,2013-04-19 10:33:00,
2013-04-19 03:42:00,50.0,50.0,30.33,SW,220,16.0,17.0,100,-99.99,,,-99.99,,2013-04-19 10:42:00,
2013-04-19 03:52:00,50.0,50.0,30.33,SW,220,16.0,17.0,100,-99.99,,,-99.99,,2013-04-19 10:52:00,
2013-04-19 04:00:00,50.0,50.0,30.31,SSW,200,16.0,18.0,100,-99.99,,,-99.99,,2013-04-19 11:00:00,
2013-04-19 04:21:00,50.0,50.0,30.31,SSW,200,16.0,18.0,100,-99.99,,,-99.99,,2013-04-19 11:21:00,
2013-04-19 04:32:00,50.0,50.0,30.31,SSW,200,16.0,18.0,100,-99.99,,,-99.99,,2013-04-19 11:32:00,
2013-04-19 04:42:00,50.0,50.0,30.31,SSW,200,16.0,18.0,100,-99.99,,,-99.99,,2013-04-19 11:42:00,
2013-04-19 04:52:00,50.0,50.0,30.31,SSW,200,16.0,18.0,100,-99.99,,,-99.99,,2013-04-19 11:52:00,
2013-04-19 05:00:00,50.0,50.0,30.27,South,190,23.0,25.0,100,-99.99,,,-99.99,,2013-04-19 12:00:00,
2013-04-19 05:22:00,50.0,50.0,30.27,South,190,23.0,25.0,100,-99.99,,,-99.99,,2013-04-19 12:22:00,
2013-04-19 05:32:00,50.0,50.0,30.27,South,190,23.0,25.0,100,-99.99,,,-99.99,,2013-04-19 12:32:00,
2013-04-19 05:52:00,50.0,50.0,30.27,South,190,23.0,25.0,100,-99.99,,,-99.99,,2013-04-19 12:52:00,
2013-04-19 06:00:00,50.0,50.0,30.25,South,190,23.0,28.0,100,-99.99,,,-99.99,,2013-04-19 13:00:00,
2013-04-19 06:21:00,50.0,50.0,30.25,South,190,23.0,28.0,100,-99.99,,,-99.99,,2013-04-19 13:21:00,
2013-04-19 06:32:00,50.0,50.0,30.25,South,190,23.0,28.0,100,-99.99,,,-99.99,,2013-04-19 13:32:00,
2013-04-19 06:41:00,50.0,50.0,30.25,South,190,23.0,28.0,100,-99.99,,,-99.99,,2013-04-19 13:41:00,
2013-04-19 06:52:00,50.0,50.0,30.25,South,190,23.0,28.0,100,-99.99,,,-99.99,,2013-04-19 13:52:00,
2013-04-19 07:00:00,50.0,50.0,30.24,SSW,200,25.0,30.0,100,-99.99,,,-99.99,,2013-04-19 14:00:00,
2013-04-19 07:11:00,50.0,50.0,30.24,SSW,200,25.0,30.0,100,-99.99,,,-99.99,,2013-04-19 14:11:00,
2013-04-19 07:31:00,50.0,50.0,30.24,SSW,200,25.0,30.0,100,-99.99,,,-99.99,,2013-04-19 14:31:00,
2013-04-19 07:42:00,50.0,50.0,30.24,SSW,200,25.0,30.0,100,-99.99,,,-99.99,,2013-04-19 14:42:00,
2013-04-19 07:52:00,50.0,50.0,30.24,SSW,200,25.0,30.0,100,-99.99,,,-99.99,,2013-04-19 14:52:00,
2013-04-19 08:00:00,50.0,50.0,30.25,SSW,200,23.0,26.0,100,-99.99,,,-99.99,,2013-04-19 15:00:00,
2013-04-19 08:21:00,50.0,50.0,30.25,SSW,200,23.0,26.0,100,-99.99,,,-99.99,,2013-04-19 15:21:00,
2013-04-19 08:33:00,50.0,50.0,30.25,SSW,200,23.0,26.0,100,-99.99,,,-99.99,,2013-04-19 15:33:00,
2013-04-19 08:42:00,50.0,50.0,30.25,SSW,200,23.0,26.0,100,-99.99,,,-99.99,,2013-04-19 15:42:00,
2013-04-19 08:52:00,50.0,50.0,30.25,SSW,200,23.0,26.0,100,-99.99,,,-99.99,,2013-04-19 15:52:00,
2013-04-19 09:00:00,51.0,51.0,30.24,SW,230,16.0,20.0,100,-99.99,,,-99.99,,2013-04-19 16:00:00,
2013-04-19 09:22:00,51.0,51.0,30.24,SW,230,16.0,20.0,100,-99.99,,,-99.99,,2013-04-19 16:22:00,
2013-04-19 09:32:00,51.0,51.0,30.24,SW,230,16.0,20.0,100,-99.99,,,-99.99,,2013-04-19 16:32:00,
2013-04-19 09:42:00,51.0,51.0,30.24,SW,230,16.0,20.0,100,-99.99,,,-99.99,,2013-04-19 16:42:00,
2013-04-19 09:52:00,51.0,51.0,30.24,SW,230,16.0,20.0,100,-99.99,,,-99.99,,2013-04-19 16:52:00,
2013-04-19 10:00:00,51.0,51.0,30.24,WSW,250,17.0,21.0,100,-99.99,,,-99.99,,2013-04-19 17:00:00,
2013-04-19 10:21:00,51.0,51.0,30.24,WSW,250,17.0,21.0,100,-99.99,,,-99.99,,2013-04-19 17:21:00,
2013-04-19 10:32:00,51.0,51.0,30.24,WSW,250,17.0,21.0,100,-99.99,,,-99.99,,2013-04-19 17:32:00,
2013-04-19 10:42:00,51.0,51.0,30.24,WSW,250,17.0,21.0,100,-99.99,,,-99.99,,2013-04-19 17:42:00,
2013-04-19 10:52:00,51.0,51.0,30.24,WSW,250,17.0,21.0,100,-99.99,,,-99.99,,2013-04-19 17:52:00,
2013-04-19 11:00:00,50.0,50.0,30.27,West,270,18.0,23.0,100,-99.99,,,-99.99,,2013-04-19 18:00:00,
2013-04-19 11:22:00,50.0,50.0,30.27,West,270,18.0,23.0,100,-99.99,,,-99.99,,2013-04-19 18:22:00,
2013-04-19 11:32:00,50.0,50.0,30.27,West,270,18.0,23.0,100,-99.99,,,-99.99,,2013-04-19 18:32:00,
2013-04-19 11:42:00,50.0,50.0,30.27,West,270,18.0,23.0,100,-99.99,,,-99.99,,2013-04-19 18:42:00,
2013-04-19 11:52:00,50.0,50.0,30.27,West,270,18.0,23.0,100,-99.99,,,-99.99,,2013-04-19 18:52:00,
2013-04-19 12:00:00,50.0,50.0,30.29,WNW,290,14.0,18.0,100,-99.99,,,-99.99,,2013-04-19 19:00:00,
2013-04-19 12:21:00,50.0,50.0,30.29,WNW,290,14.0,18.0,100,-99.99,,,-99.99,,2013-04-19 19:21:00,
2013-04-19 12:31:00,50.0,50.0,30.29,WNW,290,14.0,18.0,100,-99.99,,,-99.99,,2013-04-19 19:31:00,
2013-04-19 12:41:00,50.0,50.0,30.29,WNW,290,14.0,18.0,100,-99.99,,,-99.99,,2013-04-19 19:41:00,
2013-04-19 12:52:00,50.0,50.0,30.29,WNW,290,14.0,18.0,100,-99.99,,,-99.99,,2013-04-19 19:52:00,
2013-04-19 13:00:00,51.0,51.0,30.30,WNW,290,11.0,15.0,100,-99.99,,,-99.99,,2013-04-19 20:00:00,
2013-04-19 13:21:00,51.0,51.0,30.30,WNW,290,11.0,15.0,100,-99.99,,,-99.99,,2013-04-19 20:21:00,
2013-04-19 13:31:00,51.0,51.0,30.30,WNW,290,11.0,15.0,100,-99.99,,,-99.99,,2013-04-19 20:31:00,
2013-04-19 13:41:00,51.0,51.0,30.30,WNW,290,11.0,15.0,100,-99.99,,,-99.99,,2013-04-19 20:41:00,
2013-04-19 13:51:00,51.0,51.0,30.30,WNW,290,11.0,15.0,100,-99.99,,,-99.99,,2013-04-19 20:51:00,
2013-04-19 14:00:00,50.0,50.0,30.31,West,280,10.0,13.0,100,-99.99,,,-99.99,,2013-04-19 21:00:00,
2013-04-19 14:21:00,50.0,50.0,30.31,West,280,10.0,13.0,100,-99.99,,,-99.99,,2013-04-19 21:21:00,
2013-04-19 14:32:00,50.0,50.0,30.31,West,280,10.0,13.0,100,-99.99,,,-99.99,,2013-04-19 21:32:00,
2013-04-19 14:42:00,50.0,50.0,30.31,West,280,10.0,13.0,100,-99.99,,,-99.99,,2013-04-19 21:42:00,
2013-04-19 14:52:00,50.0,50.0,30.31,West,280,10.0,13.0,100,-99.99,,,-99.99,,2013-04-19 21:52:00,
2013-04-19 15:00:00,50.0,50.0,30.32,West,260,10.0,11.0,100,-99.99,,,-99.99,,2013-04-19 22:00:00,
2013-04-19 15:22:00,50.0,50.0,30.32,West,260,10.0,11.0,100,-99.99,,,-99.99,,2013-04-19 22:22:00,
2013-04-19 15:33:00,50.0,50.0,30.32,West,260,10.0,11.0,100,-99.99,,,-99.99,,2013-04-19 22:33:00,
2013-04-19 15:41:00,50.0,50.0,30.32,West,260,10.0,11.0,100,-99.99,,,-99.99,,2013-04-19 22:41:00,
2013-04-19 15:52:00,50.0,50.0,30.32,West,260,10.0,11.0,100,-99.99,,,-99.99,,2013-04-19 22:52:00,
2013-04-19 16:00:00,50.0,50.0,30.33,West,260,9.0,10.0,100,-99.99,,,-99.99,,2013-04-19 23:00:00,
2013-04-19 16:21:00,50.0,50.0,30.33,West,260,9.0,10.0,100,-99.99,,,-99.99,,2013-04-19 23:21:00,
2013-04-19 16:31:00,50.0,50.0,30.33,West,260,9.0,10.0,100,-99.99,,,-99.99,,2013-04-19 23:31:00,
2013-04-19 16:42:00,50.0,50.0,30.33,West,260,9.0,10.0,100,-99.99,,,-99.99,,2013-04-19 23:42:00,
2013-04-19 16:52:00,50.0,50.0,30.33,West,260,9.0,10.0,100,-99.99,,,-99.99,,2013-04-19 23:52:00,
2013-04-19 17:00:00,49.0,49.0,30.33,West,260,7.0,8.0,100,-99.99,,,-99.99,,2013-04-20 00:00:00,
2013-04-19 17:21:00,49.0,49.0,30.33,West,260,7.0,8.0,100,-99.99,,,-99.99,,2013-04-20 00:21:00,
2013-04-19 17:31:00,49.0,49.0,30.33,West,260,7.0,8.0,100,-99.99,,,-99.99,,2013-04-20 00:31:00,
2013-04-19 17:41:00,49.0,49.0,30.33,West,260,7.0,8.0,100,-99.99,,,-99.99,,2013-04-20 00:41:00,
2013-04-19 17:51:00,49.0,49.0,30.33,West,260,7.0,8.0,100,-99.99,,,-99.99,,2013-04-20 00:51:00,
2013-04-19 18:00:00,50.0,50.0,30.33,West,260,8.0,9.0,100,-99.99,,,-99.99,,2013-04-20 01:00:00,
2013-04-19 18:21:00,50.0,50.0,30.33,West,260,8.0,9.0,100,-99.99,,,-99.99,,2013-04-20 01:21:00,
2013-04-19 18:31:00,50.0,50.0,30.33,West,260,8.0,9.0,100,-99.99,,,-99.99,,2013-04-20 01:31:00,
2013-04-19 18:41:00,50.0,50.0,30.33,West,260,8.0,9.0,100,-99.99,,,-99.99,,2013-04-20 01:41:00,
2013-04-19 18:51:00,50.0,50.0,30.33,West,260,8.0,9.0,100,-99.99,,,-99.99,,2013-04-20 01:51:00,
2013-04-19 19:00:00,49.0,49.0,30.33,WNW,290,7.0,8.0,100,-99.99,,,-99.99,,2013-04-20 02:00:00,
2013-04-19 19:11:00,49.0,49.0,30.33,WNW,290,7.0,8.0,100,-99.99,,,-99.99,,2013-04-20 02:11:00,
2013-04-19 19:21:00,49.0,49.0,30.33,WNW,290,7.0,8.0,100,-99.99,,,-99.99,,2013-04-20 02:21:00,
2013-04-19 19:31:00,49.0,49.0,30.33,WNW,290,7.0,8.0,100,-99.99,,,-99.99,,2013-04-20 02:31:00,
2013-04-19 19:42:00,49.0,49.0,30.33,WNW,290,7.0,8.0,100,-99.99,,,-99.99,,2013-04-20 02:42:00,
2013-04-19 19:51:00,49.0,49.0,30.33,WNW,290,7.0,8.0,100,-99.99,,,-99.99,,2013-04-20 02:51:00,
2013-04-19 20:00:00,49.0,49.0,30.33,West,280,7.0,8.0,100,-99.99,,,-99.99,,2013-04-20 03:00:00,
2013-04-19 20:21:00,49.0,49.0,30.33,West,280,7.0,8.0,100,-99.99,,,-99.99,,2013-04-20 03:21:00,
2013-04-19 20:32:00,49.0,49.0,30.33,West,280,7.0,8.0,100,-99.99,,,-99.99,,2013-04-20 03:32:00,
2013-04-19 20:43:00,49.0,49.0,30.33,West,280,7.0,8.0,100,-99.99,,,-99.99,,2013-04-20 03:43:00,
2013-04-19 20:52:00,49.0,49.0,30.33,West,280,7.0,8.0,100,-99.99,,,-99.99,,2013-04-20 03:52:00,
2013-04-19 21:00:00,50.0,50.0,30.34,WNW,290,8.0,10.0,100,-99.99,,,-99.99,,2013-04-20 04:00:00,
2013-04-19 21:12:00,50.0,50.0,30.34,WNW,290,8.0,10.0,100,-99.99,,,-99.99,,2013-04-20 04:12:00,
2013-04-19 21:22:00,50.0,50.0,30.34,WNW,290,8.0,10.0,100,-99.99,,,-99.99,,2013-04-20 04:22:00,
2013-04-19 21:32:00,50.0,50.0,30.34,WNW,290,8.0,10.0,100,-99.99,,,-99.99,,2013-04-20 04:32:00,
2013-04-19 21:42:00,50.0,50.0,30.34,WNW,290,8.0,10.0,100,-99.99,,,-99.99,,2013-04-20 04:42:00,
2013-04-19 21:52:00,50.0,50.0,30.34,WNW,290,8.0,10.0,100,-99.99,,,-99.99,,2013-04-20 04:52:00,
2013-04-19 22:00:00,49.0,49.0,30.35,WNW,290,10.0,13.0,100,-99.99,,,-99.99,,2013-04-20 05:00:00,
2013-04-19 22:21:00,49.0,49.0,30.35,WNW,290,10.0,13.0,100,-99.99,,,-99.99,,2013-04-20 05:21:00,
2013-04-19 22:32:00,49.0,49.0,30.35,WNW,290,10.0,13.0,100,-99.99,,,-99.99,,2013-04-20 05:32:00,
2013-04-19 22:42:00,49.0,49.0,30.35,WNW,290,10.0,13.0,100,-99.99,,,-99.99,,2013-04-20 05:42:00,
2013-04-19 22:51:00,49.0,49.0,30.35,WNW,290,10.0,13.0,100,-99.99,,,-99.99,,2013-04-20 05:51:00,
2013-04-19 23:00:00,49.0,49.0,30.35,WNW,300,10.0,14.0,100,-99.99,,,-99.99,,2013-04-20 06:00:00,
2013-04-19 23:12:00,49.0,49.0,30.35,WNW,300,10.0,14.0,100,-99.99,,,-99.99,,2013-04-20 06:12:00,
2013-04-19 23:21:00,49.0,49.0,30.35,WNW,300,10.0,14.0,100,-99.99,,,-99.99,,2013-04-20 06:21:00,
2013-04-19 23:31:00,49.0,49.0,30.35,WNW,300,10.0,14.0,100,-99.99,,,-99.99,,2013-04-20 06:31:00,
2013-04-19 23:42:00,49.0,49.0,30.35,WNW,300,10.0,14.0,100,-99.99,,,-99.99,,2013-04-20 06:42:00,
2013-04-19 23:51:00,49.0,49.0,30.35,WNW,300,10.0,14.0,100,-99.99,,,-99.99,,2013-04-20 06:51:00,